| time (UTC) | temp C | wind direction | speed KPH | gust KPH | rain 1hr cm | rain 24hr cm | rain mn cm | humidity % | barometer mb |
| 20260906191215 | 26 | 149 | 8.0 | 12.9 | 0.00 | 0.00 | 0.00 | 76 | 1016.6 |
| 20260906190224 | 26 | 173 | 6.4 | 12.9 | 0.00 | 0.00 | 0.00 | 75 | 1016.6 |
| 20260906185215 | 26 | 189 | 6.4 | 11.3 | 0.00 | 0.00 | 0.00 | 76 | 1016.5 |
| 20260906184224 | 26 | 180 | 8.0 | 12.9 | 0.00 | 0.00 | 0.00 | 75 | 1016.5 |
| 20260906183215 | 26 | 165 | 9.7 | 12.9 | 0.00 | 0.00 | 0.00 | 74 | 1016.6 |
| 20260906182223 | 26 | 152 | 3.2 | 6.4 | 0.00 | 0.00 | 0.00 | 76 | 1016.9 |
| 20260906181215 | 26 | 165 | 6.4 | 12.9 | 0.00 | 0.00 | 0.00 | 76 | 1016.8 |
| 20260906180224 | 26 | 158 | 8.0 | 14.5 | 0.00 | 0.00 | 0.00 | 77 | 1016.7 |
| 20260906175216 | 26 | 174 | 9.7 | 14.5 | 0.00 | 0.00 | 0.00 | 75 | 1016.5 |
| 20260906174224 | 26 | 163 | 8.0 | 14.5 | 0.00 | 0.00 | 0.00 | 76 | 1016.6 |
| 20260906173215 | 26 | 141 | 9.7 | 17.7 | 0.00 | 0.00 | 0.00 | 77 | 1016.7 |
| 20260906172223 | 25 | 144 | 6.4 | 14.5 | 0.00 | 0.00 | 0.00 | 78 | 1016.8 |
| 20260906171237 | 26 | 175 | 9.7 | 17.7 | 0.00 | 0.00 | 0.00 | 77 | 1017.0 |
| 20260906170224 | 26 | 131 | 9.7 | 16.1 | 0.00 | 0.00 | 0.00 | 76 | 1017.0 |
| 20260906165215 | 25 | 137 | 4.8 | 16.1 | 0.00 | 0.00 | 0.00 | 79 | 1017.1 |
| 20260906164243 | 25 | 165 | 4.8 | 9.7 | 0.00 | 0.00 | 0.00 | 80 | 1017.2 |
| 20260906163215 | 25 | 112 | 4.8 | 6.4 | 0.00 | 0.00 | 0.00 | 81 | 1017.2 |
| 20260906162224 | 25 | 155 | 6.4 | 12.9 | 0.00 | 0.00 | 0.00 | 83 | 1017.3 |
| 20260906161216 | 23 | 160 | 8.0 | 14.5 | 0.00 | 0.00 | 0.00 | 84 | 1017.3 |
| 20260906160224 | 24 | 143 | 6.4 | 14.5 | 0.00 | 0.00 | 0.00 | 85 | 1017.8 |
| 20260906155216 | 24 | 206 | 3.2 | 9.7 | 0.00 | 0.00 | 0.00 | 85 | 1017.7 |
| 20260906154223 | 23 | 177 | 1.6 | 4.8 | 0.00 | 0.00 | 0.00 | 86 | 1017.3 |
| 20260906153216 | 23 | 175 | 4.8 | 11.3 | 0.00 | 0.00 | 0.00 | 86 | 1017.7 |
| 20260906152224 | 24 | 172 | 4.8 | 6.4 | 0.00 | 0.00 | 0.00 | 86 | 1017.7 |
| 20260906151216 | 23 | 180 | 6.4 | 14.5 | 0.00 | 0.00 | 0.00 | 88 | 1017.6 |
| 20260906150224 | 23 | 172 | 11.3 | 14.5 | 0.00 | 0.00 | 0.00 | 87 | 1017.6 |
| 20260906145215 | 23 | 163 | 8.0 | 14.5 | 0.00 | 0.00 | 0.00 | 88 | 1017.4 |
| 20260906144224 | 23 | 180 | 9.7 | 12.9 | 0.00 | 0.00 | 0.00 | 87 | 1017.4 |
| 20260906143216 | 23 | 153 | 8.0 | 12.9 | 0.00 | 0.00 | 0.00 | 88 | 1017.4 |
| 20260906142224 | 23 | 171 | 4.8 | 11.3 | 0.00 | 0.00 | 0.00 | 89 | 1017.5 |
| 20260906141236 | 22 | 171 | 6.4 | 11.3 | 0.00 | 0.00 | 0.00 | 91 | 1017.5 |
| 20260906140224 | 22 | 188 | 4.8 | 9.7 | 0.00 | 0.00 | 0.00 | 94 | 1017.5 |
| 20260906135216 | 22 | 168 | 3.2 | 9.7 | 0.00 | 0.00 | 0.00 | 95 | 1017.5 |
| 20260906134224 | 21 | 162 | 3.2 | 3.2 | 0.00 | 0.00 | 0.00 | 98 | 1017.4 |
| 20260906133216 | 21 | 158 | 3.2 | 4.8 | 0.00 | 0.00 | 0.00 | 99 | 1017.1 |
| 20260906132224 | 20 | 145 | 3.2 | 4.8 | 0.00 | 0.00 | 0.00 | 99 | 1017.2 |
| 20260906131216 | 20 | 126 | 1.6 | 4.8 | 0.00 | 0.00 | 0.00 | 99 | 1017.2 |
| 20260906130244 | 20 | 0.0 | 0.0 | 0.00 | 0.00 | 0.00 | 99 | 1017.2 | |
| 20260906125216 | 20 | 136 | 1.6 | 4.8 | 0.00 | 0.00 | 0.00 | 99 | 1017.2 |
| 20260906124224 | 19 | 179 | 1.6 | 3.2 | 0.00 | 0.00 | 0.00 | 99 | 1017.2 |
| 20260906123216 | 19 | 167 | 0.0 | 3.2 | 0.00 | 0.00 | 0.00 | 99 | 1017.3 |
| 20260906122244 | 18 | 0.0 | 0.0 | 0.00 | 0.00 | 0.00 | 99 | 1017.2 | |
| 20260906121216 | 18 | 145 | 0.0 | 1.6 | 0.00 | 0.00 | 0.00 | 99 | 1017.0 |
| 20260906120224 | 18 | 0.0 | 0.0 | 0.00 | 0.00 | 0.00 | 99 | 1017.0 | |
| 20260906115236 | 18 | 0.0 | 0.0 | 0.00 | 0.00 | 0.00 | 99 | 1016.8 | |
| 20260906114224 | 18 | 0.0 | 0.0 | 0.00 | 0.00 | 0.00 | 99 | 1016.9 | |
| 20260906113216 | 18 | 0.0 | 0.0 | 0.00 | 0.00 | 0.00 | 99 | 1016.8 | |
| 20260906112224 | 18 | 174 | 0.0 | 1.6 | 0.00 | 0.00 | 0.00 | 99 | 1016.7 |
| 20260906111216 | 18 | 0.0 | 0.0 | 0.00 | 0.00 | 0.00 | 99 | 1016.5 | |
| 20260906110244 | 18 | 0.0 | 0.0 | 0.00 | 0.00 | 0.00 | 99 | 1016.4 | |
| 20260906105236 | 18 | 0.0 | 0.0 | 0.00 | 0.00 | 0.00 | 99 | 1016.6 | |
| 20260906104244 | 18 | 0.0 | 0.0 | 0.00 | 0.00 | 0.00 | 99 | 1016.5 | |
| 20260906103216 | 18 | 0.0 | 0.0 | 0.00 | 0.00 | 0.00 | 99 | 1016.5 | |
| 20260906102224 | 18 | 0.0 | 0.0 | 0.00 | 0.00 | 0.00 | 99 | 1016.5 | |
| 20260906101216 | 18 | 0.0 | 0.0 | 0.00 | 0.00 | 0.00 | 99 | 1016.2 | |
| 20260906100224 | 19 | 0.0 | 0.0 | 0.00 | 0.00 | 0.00 | 99 | 1016.3 | |
| 20260906095216 | 19 | 0.0 | 0.0 | 0.00 | 0.00 | 0.00 | 99 | 1016.1 | |
| 20260906094224 | 19 | 154 | 0.0 | 1.6 | 0.00 | 0.00 | 0.00 | 99 | 1015.8 |
| 20260906093216 | 20 | 119 | 1.6 | 1.6 | 0.00 | 0.00 | 0.00 | 99 | 1015.7 |
| 20260906092244 | 20 | 176 | 1.6 | 1.6 | 0.00 | 0.00 | 0.00 | 99 | 1015.6 |
| 20260906091216 | 20 | 0.0 | 0.0 | 0.00 | 0.00 | 0.00 | 99 | 1015.6 | |
| 20260906090244 | 20 | 0.0 | 0.0 | 0.00 | 0.00 | 0.00 | 99 | 1015.6 | |
| 20260906085216 | 20 | 162 | 1.6 | 3.2 | 0.00 | 0.00 | 0.00 | 99 | 1015.6 |
| 20260906084224 | 20 | 151 | 1.6 | 1.6 | 0.00 | 0.00 | 0.00 | 99 | 1015.5 |
| 20260906083216 | 20 | 103 | 1.6 | 3.2 | 0.00 | 0.00 | 0.00 | 99 | 1015.5 |
| 20260906082224 | 20 | 131 | 0.0 | 3.2 | 0.00 | 0.00 | 0.00 | 99 | 1015.6 |
| 20260906081216 | 20 | 138 | 1.6 | 1.6 | 0.00 | 0.00 | 0.00 | 99 | 1015.7 |
| 20260906080245 | 20 | 125 | 0.0 | 1.6 | 0.00 | 0.00 | 0.00 | 99 | 1015.6 |
| 20260906075216 | 20 | 0.0 | 0.0 | 0.00 | 0.00 | 0.00 | 99 | 1015.6 | |
| 20260906074224 | 20 | 168 | 0.0 | 1.6 | 0.00 | 0.00 | 0.00 | 98 | 1015.8 |
| 20260906073216 | 20 | 123 | 0.0 | 1.6 | 0.00 | 0.00 | 0.00 | 98 | 1015.6 |
| 20260906072224 | 20 | 0.0 | 0.0 | 0.00 | 0.00 | 0.00 | 97 | 1015.6 | |
| 20260906071217 | 20 | 0.0 | 0.0 | 0.00 | 0.00 | 0.00 | 97 | 1016.0 | |
| 20260906070224 | 20 | 0.0 | 0.0 | 0.00 | 0.00 | 0.00 | 97 | 1015.9 | |
| 20260906065216 | 20 | 131 | 1.6 | 1.6 | 0.00 | 0.00 | 0.00 | 97 | 1015.9 |
| 20260906064244 | 20 | 0.0 | 0.0 | 0.00 | 0.00 | 0.00 | 98 | 1016.0 | |
| 20260906063216 | 20 | 169 | 0.0 | 1.6 | 0.00 | 0.00 | 0.00 | 98 | 1016.1 |
| 20260906062225 | 20 | 0.0 | 0.0 | 0.00 | 0.00 | 0.00 | 98 | 1016.1 | |
| 20260906061217 | 20 | 173 | 0.0 | 1.6 | 0.00 | 0.00 | 0.00 | 98 | 1015.9 |
| 20260906060224 | 20 | 171 | 0.0 | 1.6 | 0.00 | 0.00 | 0.00 | 97 | 1016.0 |
| 20260906055216 | 20 | 117 | 0.0 | 1.6 | 0.00 | 0.00 | 0.00 | 97 | 1016.0 |
| 20260906054245 | 20 | 0.0 | 0.0 | 0.00 | 0.00 | 0.00 | 97 | 1016.1 | |
| 20260906053217 | 20 | 145 | 0.0 | 1.6 | 0.00 | 0.00 | 0.00 | 97 | 1016.0 |
| 20260906052225 | 20 | 0.0 | 0.0 | 0.00 | 0.00 | 0.00 | 96 | 1016.1 | |
| 20260906051217 | 20 | 145 | 1.6 | 1.6 | 0.00 | 0.00 | 0.00 | 96 | 1016.1 |
| 20260906050224 | 20 | 0.0 | 0.0 | 0.00 | 0.00 | 0.00 | 95 | 1015.9 | |
| 20260906045237 | 21 | 0.0 | 0.0 | 0.00 | 0.00 | 0.00 | 94 | 1016.0 | |
| 20260906044225 | 21 | 0.0 | 0.0 | 0.00 | 0.00 | 0.00 | 93 | 1016.0 | |
| 20260906043217 | 21 | 0.0 | 0.0 | 0.00 | 0.00 | 0.00 | 93 | 1016.1 | |
| 20260906042225 | 21 | 0.0 | 0.0 | 0.00 | 0.00 | 0.00 | 91 | 1016.2 | |
| 20260906041217 | 21 | 0.0 | 0.0 | 0.00 | 0.00 | 0.00 | 91 | 1016.3 | |
| 20260906040225 | 22 | 0.0 | 0.0 | 0.00 | 0.00 | 0.00 | 89 | 1016.0 | |
| 20260906035217 | 22 | 191 | 0.0 | 1.6 | 0.00 | 0.00 | 0.00 | 89 | 1016.0 |
| 20260906034225 | 22 | 177 | 1.6 | 1.6 | 0.00 | 0.00 | 0.00 | 88 | 1016.2 |
| 20260906033217 | 22 | 151 | 0.0 | 1.6 | 0.00 | 0.00 | 0.00 | 88 | 1016.3 |
| 20260906032225 | 22 | 0.0 | 0.0 | 0.00 | 0.00 | 0.00 | 87 | 1016.3 | |
| 20260906031217 | 22 | 0.0 | 0.0 | 0.00 | 0.00 | 0.00 | 85 | 1016.5 | |
| 20260906030245 | 23 | 177 | 0.0 | 1.6 | 0.00 | 0.00 | 0.00 | 84 | 1016.6 |
| 20260906025237 | 23 | 96 | 0.0 | 1.6 | 0.00 | 0.00 | 0.00 | 84 | 1016.3 |
| 20260906024225 | 23 | 0.0 | 0.0 | 0.00 | 0.00 | 0.00 | 83 | 1016.4 | |
| 20260906023217 | 23 | 132 | 1.6 | 1.6 | 0.00 | 0.00 | 0.00 | 83 | 1016.2 |
| 20260906022225 | 23 | 170 | 0.0 | 1.6 | 0.00 | 0.00 | 0.00 | 83 | 1016.0 |
| 20260906021217 | 23 | 147 | 0.0 | 1.6 | 0.00 | 0.00 | 0.00 | 83 | 1015.9 |
| 20260906020225 | 23 | 132 | 1.6 | 1.6 | 0.00 | 0.00 | 0.00 | 82 | 1015.5 |
| 20260906015217 | 23 | 0.0 | 0.0 | 0.00 | 0.00 | 0.00 | 82 | 1015.1 | |
| 20260906014245 | 24 | 141 | 1.6 | 1.6 | 0.00 | 0.00 | 0.00 | 80 | 1014.9 |
| 20260906013217 | 24 | 151 | 1.6 | 3.2 | 0.00 | 0.00 | 0.00 | 80 | 1014.7 |
| 20260906012225 | 25 | 165 | 1.6 | 3.2 | 0.00 | 0.00 | 0.00 | 79 | 1014.5 |
| 20260906011217 | 25 | 149 | 1.6 | 3.2 | 0.00 | 0.00 | 0.00 | 78 | 1014.4 |
| 20260906010225 | 25 | 189 | 0.0 | 3.2 | 0.00 | 0.00 | 0.00 | 77 | 1014.1 |
| 20260906005217 | 25 | 161 | 1.6 | 4.8 | 0.00 | 0.00 | 0.00 | 77 | 1013.8 |
| 20260906004225 | 26 | 165 | 3.2 | 4.8 | 0.00 | 0.00 | 0.00 | 76 | 1013.7 |
| 20260906003257 | 26 | 148 | 1.6 | 4.8 | 0.00 | 0.00 | 0.00 | 74 | 1013.6 |
| 20260906002225 | 26 | 173 | 3.2 | 4.8 | 0.00 | 0.00 | 0.00 | 72 | 1013.3 |
| 20260906001217 | 27 | 104 | 3.2 | 4.8 | 0.00 | 0.00 | 0.00 | 71 | 1012.9 |
| 20260906000226 | 27 | 170 | 1.6 | 4.8 | 0.00 | 0.00 | 0.00 | 70 | 1013.3 |
| 20260905235217 | 27 | 182 | 1.6 | 3.2 | 0.00 | 0.00 | 0.00 | 69 | 1013.5 |
| 20260905234225 | 27 | 136 | 3.2 | 4.8 | 0.00 | 0.00 | 0.00 | 68 | 1013.6 |
| 20260905233217 | 28 | 144 | 4.8 | 6.4 | 0.00 | 0.00 | 0.00 | 68 | 1013.4 |
| 20260905232245 | 28 | 78 | 4.8 | 11.3 | 0.00 | 0.00 | 0.00 | 68 | 1013.4 |
| 20260905231218 | 28 | 102 | 3.2 | 6.4 | 0.00 | 0.00 | 0.00 | 69 | 1013.4 |
| 20260905230245 | 28 | 113 | 3.2 | 6.4 | 0.00 | 0.00 | 0.00 | 69 | 1013.5 |
| 20260905225217 | 28 | 63 | 6.4 | 14.5 | 0.00 | 0.00 | 0.00 | 69 | 1013.0 |
| 20260905224225 | 28 | 57 | 3.2 | 11.3 | 0.00 | 0.00 | 0.00 | 70 | 1013.0 |
| 20260905223257 | 28 | 203 | 1.6 | 4.8 | 0.00 | 0.00 | 0.00 | 70 | 1013.3 |
| 20260905222225 | 28 | 72 | 4.8 | 6.4 | 0.00 | 0.00 | 0.00 | 69 | 1013.3 |
| 20260905221218 | 28 | 217 | 1.6 | 4.8 | 0.00 | 0.00 | 0.00 | 69 | 1013.5 |
| 20260905220225 | 28 | 49 | 8.0 | 12.9 | 0.00 | 0.00 | 0.00 | 69 | 1013.5 |
| 20260905215217 | 28 | 108 | 8.0 | 12.9 | 0.00 | 0.00 | 0.00 | 67 | 1013.5 |
| 20260905214225 | 28 | 158 | 4.8 | 6.4 | 0.00 | 0.00 | 0.00 | 68 | 1013.5 |
| 20260905213217 | 28 | 81 | 6.4 | 11.3 | 0.00 | 0.00 | 0.00 | 69 | 1013.5 |
| 20260905212226 | 28 | 75 | 8.0 | 11.3 | 0.00 | 0.00 | 0.00 | 69 | 1013.7 |
| 20260905211218 | 28 | 75 | 6.4 | 12.9 | 0.00 | 0.00 | 0.00 | 70 | 1013.9 |
| 20260905210225 | 28 | 86 | 4.8 | 9.7 | 0.00 | 0.00 | 0.00 | 70 | 1014.1 |
| 20260905205217 | 28 | 65 | 3.2 | 6.4 | 0.00 | 0.00 | 0.00 | 73 | 1014.3 |
| 20260905204225 | 28 | 357 | 6.4 | 9.7 | 0.00 | 0.00 | 0.00 | 72 | 1014.4 |
| 20260905203218 | 28 | 182 | 3.2 | 3.2 | 0.00 | 0.00 | 0.00 | 72 | 1014.7 |
| 20260905202226 | 27 | 179 | 3.2 | 6.4 | 0.00 | 0.00 | 0.00 | 73 | 1014.8 |
| 20260905201217 | 27 | 46 | 4.8 | 6.4 | 0.00 | 0.00 | 0.00 | 74 | 1015.1 |
| 20260905200225 | 27 | 89 | 1.6 | 3.2 | 0.00 | 0.00 | 0.00 | 73 | 1015.3 |
| 20260905195217 | 27 | 49 | 3.2 | 4.8 | 0.00 | 0.00 | 0.00 | 73 | 1015.3 |
| 20260905194226 | 27 | 167 | 3.2 | 3.2 | 0.00 | 0.00 | 0.00 | 75 | 1015.6 |
| 20260905193218 | 27 | 213 | 3.2 | 3.2 | 0.00 | 0.00 | 0.00 | 76 | 1015.5 |
| 20260905192226 | 26 | 177 | 1.6 | 3.2 | 0.00 | 0.00 | 0.00 | 78 | 1015.5 |